createdAt,value
2017-08-26T00:00:07.830Z,78.80
2017-08-26T00:02:41.088Z,78.80
2017-08-26T00:05:08.648Z,78.90
2017-08-26T00:07:36.976Z,78.80
2017-08-26T00:10:04.553Z,78.70
2017-08-26T00:12:32.143Z,78.60
2017-08-26T00:14:59.680Z,78.70
2017-08-26T00:17:27.277Z,79.10
2017-08-26T00:19:54.849Z,79.60
2017-08-26T00:22:22.444Z,80.50
2017-08-26T00:24:50.000Z,81.20
2017-08-26T00:27:17.582Z,81.20
2017-08-26T00:29:45.145Z,81.50
2017-08-26T00:32:12.816Z,80.80
2017-08-26T00:34:40.388Z,80.90
2017-08-26T00:37:08.017Z,81.20
2017-08-26T00:39:35.661Z,80.40
2017-08-26T00:42:03.215Z,80.40
2017-08-26T00:44:30.784Z,80.90
2017-08-26T00:46:58.404Z,81.20
2017-08-26T00:49:25.976Z,81.20
2017-08-26T00:51:53.550Z,81.50
2017-08-26T00:54:21.238Z,81.20
2017-08-26T00:56:48.781Z,80.40
2017-08-26T00:59:16.388Z,79.90
2017-08-26T01:01:44.424Z,80.60
2017-08-26T01:04:21.666Z,80.30
2017-08-26T01:06:49.311Z,80.80
2017-08-26T01:09:16.931Z,80.30
2017-08-26T01:11:44.596Z,79.90
2017-08-26T01:14:12.208Z,79.90
2017-08-26T01:16:39.865Z,79.70
2017-08-26T01:19:07.491Z,79.50
2017-08-26T01:21:35.150Z,79.50
2017-08-26T01:24:02.886Z,79.50
2017-08-26T01:26:30.719Z,79.30
2017-08-26T01:28:58.257Z,79.50
2017-08-26T01:31:25.848Z,79.40
2017-08-26T01:33:53.457Z,78.90
2017-08-26T01:36:21.119Z,78.80
2017-08-26T01:38:48.740Z,78.80
2017-08-26T01:41:16.408Z,78.60
2017-08-26T01:43:44.022Z,78.70
2017-08-26T01:46:11.721Z,78.90
2017-08-26T01:48:39.279Z,79.00
2017-08-26T01:51:06.870Z,79.40
2017-08-26T01:53:34.482Z,78.80
2017-08-26T01:56:02.101Z,78.40
2017-08-26T01:58:29.718Z,79.30
2017-08-26T02:00:57.381Z,79.10
2017-08-26T02:03:24.923Z,79.40
2017-08-26T02:05:52.491Z,79.10
2017-08-26T02:08:20.037Z,78.90
2017-08-26T02:10:47.692Z,78.70
2017-08-26T02:13:15.319Z,78.20
2017-08-26T02:15:42.859Z,77.70
2017-08-26T02:18:10.443Z,77.80
2017-08-26T02:20:37.987Z,77.80
2017-08-26T02:23:05.564Z,77.60
2017-08-26T02:25:33.095Z,78.00
2017-08-26T02:28:00.667Z,78.00
2017-08-26T02:30:28.195Z,78.00
2017-08-26T02:32:55.768Z,77.90
2017-08-26T02:35:23.320Z,78.60
2017-08-26T02:37:50.911Z,78.60
2017-08-26T02:40:18.458Z,78.10
2017-08-26T02:42:46.353Z,78.00
2017-08-26T02:45:14.071Z,78.70
2017-08-26T02:47:41.754Z,79.20
2017-08-26T02:50:09.404Z,78.50
2017-08-26T02:52:36.994Z,78.70
2017-08-26T02:55:04.632Z,78.20
2017-08-26T02:57:32.260Z,78.00
2017-08-26T02:59:59.874Z,78.40
2017-08-26T03:02:27.445Z,77.90
2017-08-26T03:04:55.043Z,77.60
2017-08-26T03:07:22.672Z,77.10
2017-08-26T03:09:50.248Z,76.70
2017-08-26T03:12:17.915Z,76.40
2017-08-26T03:14:45.534Z,76.10
2017-08-26T03:17:13.165Z,76.00
2017-08-26T03:19:40.849Z,76.00
2017-08-26T03:22:08.473Z,77.00
2017-08-26T03:24:36.128Z,76.70
2017-08-26T03:27:03.760Z,77.60
2017-08-26T03:29:31.380Z,76.90
2017-08-26T03:31:58.990Z,76.80
2017-08-26T03:34:26.935Z,75.60
2017-08-26T03:36:54.563Z,77.30
2017-08-26T03:39:22.224Z,75.30
2017-08-26T03:41:49.844Z,75.20
2017-08-26T03:44:17.499Z,75.20
2017-08-26T03:46:45.088Z,72.60
2017-08-26T03:49:12.689Z,73.30
2017-08-26T03:51:40.260Z,73.10
2017-08-26T03:54:07.942Z,73.40
2017-08-26T03:56:35.475Z,73.60
2017-08-26T03:59:03.140Z,72.80
2017-08-26T04:01:30.664Z,72.80
2017-08-26T04:03:58.342Z,72.60
2017-08-26T04:06:26.015Z,70.30
2017-08-26T04:08:53.571Z,72.00
2017-08-26T04:11:21.110Z,72.70
2017-08-26T04:13:48.741Z,73.70
2017-08-26T04:16:16.313Z,72.90
2017-08-26T04:18:43.992Z,71.40
2017-08-26T04:21:11.789Z,71.60
2017-08-26T04:23:41.033Z,70.70
2017-08-26T04:26:09.562Z,68.10
2017-08-26T04:28:37.601Z,69.50
2017-08-26T04:31:05.261Z,68.70
2017-08-26T04:33:32.847Z,67.40
2017-08-26T04:36:00.511Z,67.20
2017-08-26T04:38:28.113Z,63.40
2017-08-26T04:40:55.709Z,61.00
2017-08-26T04:43:23.372Z,59.00
2017-08-26T04:45:51.442Z,58.60
2017-08-26T04:48:19.103Z,61.60
2017-08-26T04:50:46.715Z,57.80
2017-08-26T04:53:14.289Z,59.50
2017-08-26T04:55:41.937Z,57.90
2017-08-26T04:58:09.552Z,55.50
2017-08-26T05:00:37.238Z,58.40
2017-08-26T05:03:04.847Z,56.70
2017-08-26T05:05:32.435Z,57.80
2017-08-26T05:08:00.122Z,53.70
2017-08-26T05:10:27.728Z,51.90
2017-08-26T05:12:55.312Z,52.90
2017-08-26T05:15:22.885Z,52.20
2017-08-26T05:17:50.483Z,49.30
2017-08-26T05:22:51.952Z,44.80
2017-08-26T05:25:19.605Z,45.20
2017-08-26T05:27:47.132Z,44.90
2017-08-26T05:30:14.709Z,45.80
2017-08-26T05:32:42.341Z,46.40
2017-08-26T05:35:09.971Z,44.30
2017-08-26T05:37:37.672Z,44.20
2017-08-26T05:40:05.312Z,45.00
2017-08-26T05:42:33.046Z,44.80
2017-08-26T05:45:00.618Z,46.50
2017-08-26T05:47:28.162Z,45.50
2017-08-26T05:49:55.760Z,47.60
2017-08-26T05:52:23.298Z,45.00
2017-08-26T05:54:50.929Z,46.70
2017-08-26T05:57:18.585Z,44.60
2017-08-26T05:59:46.210Z,45.10
2017-08-26T06:02:13.877Z,46.30
2017-08-26T06:04:42.185Z,45.60
2017-08-26T06:07:09.799Z,46.70
2017-08-26T06:09:37.399Z,48.10
2017-08-26T06:12:05.016Z,48.70
2017-08-26T06:14:32.593Z,48.30
2017-08-26T06:17:00.116Z,47.60
2017-08-26T06:19:27.708Z,45.70
2017-08-26T06:21:55.318Z,45.40
2017-08-26T06:24:22.898Z,44.60
2017-08-26T06:26:50.556Z,47.50
2017-08-26T06:29:18.162Z,45.10
2017-08-26T06:31:45.712Z,45.90
2017-08-26T06:34:13.372Z,46.70
2017-08-26T06:36:40.990Z,44.90
2017-08-26T06:39:08.582Z,46.10
2017-08-26T06:41:36.202Z,46.30
2017-08-26T06:44:03.736Z,43.30
2017-08-26T06:46:31.317Z,42.00
2017-08-26T06:48:58.877Z,43.50
2017-08-26T06:51:26.560Z,46.30
2017-08-26T06:53:54.162Z,45.90
2017-08-26T06:56:21.791Z,47.30
2017-08-26T06:58:49.367Z,49.50
2017-08-26T07:01:16.968Z,49.00
2017-08-26T07:03:44.628Z,47.70
2017-08-26T07:08:47.275Z,50.00
2017-08-26T07:11:14.894Z,51.60
2017-08-26T07:13:42.434Z,49.80
2017-08-26T07:16:10.111Z,48.70
2017-08-26T07:18:37.849Z,46.40
2017-08-26T07:21:05.526Z,45.50
2017-08-26T07:23:33.063Z,47.00
2017-08-26T07:26:00.603Z,43.40
2017-08-26T07:28:28.251Z,43.90
2017-08-26T07:30:55.779Z,45.30
2017-08-26T07:33:23.440Z,45.00
2017-08-26T07:35:51.056Z,43.00
2017-08-26T07:38:18.627Z,41.70
2017-08-26T07:40:46.290Z,41.30
2017-08-26T07:43:13.907Z,41.00
2017-08-26T07:45:41.519Z,41.20
2017-08-26T07:48:09.148Z,41.60
2017-08-26T07:50:36.766Z,42.00
2017-08-26T07:53:04.439Z,42.30
2017-08-26T07:55:32.059Z,41.00
2017-08-26T07:57:59.642Z,41.90
2017-08-26T08:00:27.251Z,41.00
2017-08-26T08:02:54.799Z,39.60
2017-08-26T08:05:22.452Z,40.50
2017-08-26T08:07:50.051Z,40.50
2017-08-26T08:10:17.653Z,39.00
2017-08-26T08:12:46.123Z,38.10
2017-08-26T08:15:13.723Z,38.70
2017-08-26T08:17:41.328Z,38.40
2017-08-26T08:20:08.913Z,36.80
2017-08-26T08:22:36.517Z,39.30
2017-08-26T08:25:05.022Z,39.90
2017-08-26T08:27:32.568Z,38.50
2017-08-26T08:30:00.143Z,40.20
2017-08-26T08:32:27.756Z,40.20
2017-08-26T08:34:55.432Z,37.90
2017-08-26T08:37:23.110Z,37.80
2017-08-26T08:39:50.677Z,38.60
2017-08-26T08:42:18.331Z,38.20
2017-08-26T08:44:45.889Z,38.30
2017-08-26T08:47:13.583Z,39.30
2017-08-26T08:49:41.128Z,37.60
2017-08-26T08:52:08.838Z,37.90
2017-08-26T08:54:36.466Z,38.40
2017-08-26T08:57:04.022Z,38.60
2017-08-26T08:59:31.672Z,38.90
2017-08-26T09:01:59.303Z,38.90
2017-08-26T09:04:26.876Z,37.90
2017-08-26T09:06:54.479Z,37.40
2017-08-26T09:09:22.083Z,37.10
2017-08-26T09:11:49.664Z,37.00
2017-08-26T09:14:17.294Z,38.50
2017-08-26T09:16:44.976Z,37.40
2017-08-26T09:19:12.628Z,38.10
2017-08-26T09:21:40.172Z,37.30
2017-08-26T09:24:07.870Z,37.80
2017-08-26T09:26:35.452Z,36.20
2017-08-26T09:29:03.117Z,37.90
2017-08-26T09:31:30.744Z,35.90
2017-08-26T09:33:58.400Z,36.10
2017-08-26T09:36:25.939Z,36.60
2017-08-26T09:38:53.507Z,36.70
2017-08-26T09:41:21.111Z,35.60
2017-08-26T09:43:49.057Z,35.90
2017-08-26T09:46:16.747Z,36.20
2017-08-26T09:48:44.296Z,35.40
2017-08-26T09:51:11.922Z,34.70
2017-08-26T09:53:39.601Z,34.20
2017-08-26T09:56:07.202Z,35.10
2017-08-26T09:58:34.860Z,35.00
2017-08-26T10:01:02.495Z,34.80
2017-08-26T10:03:30.146Z,34.80
2017-08-26T10:05:57.773Z,35.10
2017-08-26T10:08:26.335Z,34.50
2017-08-26T10:10:53.964Z,33.50
2017-08-26T10:13:21.496Z,34.40
2017-08-26T10:15:49.060Z,34.10
2017-08-26T10:18:16.597Z,35.10
2017-08-26T10:20:44.213Z,33.90
2017-08-26T10:23:11.855Z,35.60
2017-08-26T10:25:39.568Z,35.60
2017-08-26T10:28:07.189Z,34.30
2017-08-26T10:30:34.824Z,35.90
2017-08-26T10:33:02.498Z,33.90
2017-08-26T10:35:30.115Z,34.20
2017-08-26T10:37:57.784Z,31.30
2017-08-26T10:40:25.348Z,31.70
2017-08-26T10:42:53.812Z,34.30
2017-08-26T10:45:21.443Z,33.00
2017-08-26T10:47:49.013Z,33.20
2017-08-26T10:50:16.685Z,33.50
2017-08-26T10:52:44.223Z,31.70
2017-08-26T10:55:11.925Z,33.10
2017-08-26T10:57:39.474Z,33.40
2017-08-26T11:00:07.116Z,31.60
2017-08-26T11:02:34.832Z,32.90
2017-08-26T11:05:02.384Z,32.30
2017-08-26T11:07:29.944Z,32.00
2017-08-26T11:09:57.491Z,30.90
2017-08-26T11:12:25.134Z,32.30
2017-08-26T11:14:52.783Z,30.40
2017-08-26T11:17:20.349Z,31.00
2017-08-26T11:19:47.912Z,34.10
2017-08-26T11:22:15.469Z,32.00
2017-08-26T11:24:43.910Z,31.40
2017-08-26T11:27:11.463Z,31.40
2017-08-26T11:29:39.138Z,32.20
2017-08-26T11:32:06.702Z,30.90
2017-08-26T11:34:34.276Z,29.20
2017-08-26T11:37:01.937Z,28.80
2017-08-26T11:39:29.545Z,29.30
2017-08-26T11:41:57.169Z,29.10
2017-08-26T11:44:24.752Z,31.20
2017-08-26T11:46:52.421Z,30.00
2017-08-26T11:49:20.024Z,30.90
2017-08-26T11:51:47.561Z,33.70
2017-08-26T11:54:15.227Z,30.00
2017-08-26T11:56:42.763Z,29.10
2017-08-26T11:59:10.410Z,28.10
2017-08-26T12:01:38.054Z,28.80
2017-08-26T12:04:05.753Z,29.00
2017-08-26T12:06:33.450Z,28.50
2017-08-26T12:09:01.073Z,28.90
2017-08-26T12:11:28.694Z,29.70
2017-08-26T12:13:56.297Z,28.90
2017-08-26T12:16:23.937Z,29.30
2017-08-26T12:18:51.491Z,29.20
2017-08-26T12:21:19.024Z,28.80
2017-08-26T12:23:46.680Z,29.10
2017-08-26T12:26:14.226Z,29.70
2017-08-26T12:28:41.828Z,29.40
2017-08-26T12:31:09.510Z,29.60
2017-08-26T12:33:37.120Z,29.30
2017-08-26T12:36:04.731Z,32.50
2017-08-26T12:38:32.334Z,29.70
2017-08-26T12:41:00.516Z,29.10
2017-08-26T12:43:28.116Z,29.60
2017-08-26T12:45:55.709Z,29.20
2017-08-26T12:48:23.349Z,29.60
2017-08-26T12:50:50.957Z,29.40
2017-08-26T12:53:18.611Z,30.00
2017-08-26T12:55:46.222Z,29.90
2017-08-26T12:58:13.845Z,31.20
2017-08-26T13:00:41.568Z,30.80
2017-08-26T13:03:09.194Z,30.60
2017-08-26T13:05:36.914Z,30.10
2017-08-26T13:08:04.536Z,31.20
2017-08-26T13:10:32.116Z,32.10
2017-08-26T13:12:59.760Z,31.80
2017-08-26T13:15:27.367Z,31.80
2017-08-26T13:17:55.045Z,31.00
2017-08-26T13:20:22.626Z,31.80
2017-08-26T13:22:50.300Z,32.00
2017-08-26T13:25:17.871Z,33.70
2017-08-26T13:27:45.467Z,31.40
2017-08-26T13:30:13.081Z,33.80
2017-08-26T13:32:40.700Z,39.40
2017-08-26T13:35:08.347Z,37.30
2017-08-26T13:37:35.891Z,33.50
2017-08-26T13:40:03.504Z,32.50
2017-08-26T13:42:31.124Z,32.60
2017-08-26T13:44:58.696Z,31.60
2017-08-26T13:47:26.325Z,34.80
2017-08-26T13:49:53.891Z,38.10
2017-08-26T13:52:21.509Z,34.80
2017-08-26T13:54:49.077Z,33.60
2017-08-26T13:57:16.675Z,34.40
2017-08-26T13:59:44.276Z,31.80
2017-08-26T14:02:11.860Z,36.80
2017-08-26T14:04:39.442Z,38.40
2017-08-26T14:07:07.011Z,36.90
2017-08-26T14:09:34.625Z,37.60
2017-08-26T14:12:02.180Z,31.30
2017-08-26T14:14:30.090Z,36.90
2017-08-26T14:16:57.684Z,40.20
2017-08-26T14:19:25.233Z,39.10
2017-08-26T14:21:52.866Z,39.60
2017-08-26T14:24:20.428Z,39.40
2017-08-26T14:26:48.084Z,36.40
2017-08-26T14:29:15.619Z,34.70
2017-08-26T14:31:43.209Z,36.00
2017-08-26T14:34:10.757Z,36.60
2017-08-26T14:36:38.365Z,35.00
2017-08-26T14:39:05.949Z,34.90
2017-08-26T14:41:33.659Z,35.50
2017-08-26T14:44:01.294Z,38.00
2017-08-26T14:46:28.845Z,39.50
2017-08-26T14:48:56.424Z,39.80
2017-08-26T14:51:24.029Z,37.50
2017-08-26T14:53:51.697Z,34.10
2017-08-26T14:56:19.331Z,35.90
2017-08-26T14:58:46.936Z,32.40
2017-08-26T15:01:14.596Z,34.40
2017-08-26T15:03:42.244Z,32.30
2017-08-26T15:06:09.943Z,34.60
2017-08-26T15:08:37.853Z,31.20
2017-08-26T15:11:05.454Z,30.50
2017-08-26T15:13:33.146Z,32.90
2017-08-26T15:16:00.765Z,29.30
2017-08-26T15:18:28.423Z,29.50
2017-08-26T15:20:55.960Z,29.60
2017-08-26T15:23:23.538Z,29.60
2017-08-26T15:25:51.168Z,27.50
2017-08-26T15:28:18.741Z,30.80
2017-08-26T15:30:46.359Z,32.50
2017-08-26T15:33:13.892Z,32.50
2017-08-26T15:35:41.472Z,34.20
2017-08-26T15:38:09.125Z,35.50
2017-08-26T15:40:36.703Z,34.90
2017-08-26T15:43:04.248Z,38.00
2017-08-26T15:45:31.796Z,38.90
2017-08-26T15:47:59.363Z,36.80
2017-08-26T15:50:26.899Z,41.20
2017-08-26T15:52:54.540Z,41.90
2017-08-26T15:55:22.119Z,43.40
2017-08-26T15:57:49.719Z,44.30
2017-08-26T16:00:17.333Z,44.80
2017-08-26T16:02:44.938Z,44.30
2017-08-26T16:05:12.515Z,46.10
2017-08-26T16:07:40.082Z,46.60
2017-08-26T16:10:07.738Z,48.00
2017-08-26T16:12:35.356Z,47.40
2017-08-26T16:15:02.953Z,48.30
2017-08-26T16:17:30.479Z,48.30
2017-08-26T16:19:58.076Z,49.80
2017-08-26T16:22:25.670Z,50.10
2017-08-26T16:24:53.233Z,50.60
2017-08-26T16:27:20.876Z,51.20
2017-08-26T16:29:48.565Z,52.20
2017-08-26T16:32:16.185Z,51.90
2017-08-26T16:34:43.813Z,52.00
2017-08-26T16:37:11.382Z,52.50
2017-08-26T16:39:38.985Z,51.80
2017-08-26T16:42:07.341Z,51.50
2017-08-26T16:44:34.942Z,51.50
2017-08-26T16:47:02.515Z,51.60
2017-08-26T16:49:30.099Z,52.40
2017-08-26T16:51:59.284Z,52.90
2017-08-26T16:54:26.819Z,52.80
2017-08-26T16:56:54.385Z,52.10
2017-08-26T16:59:22.020Z,51.90
2017-08-26T17:01:49.556Z,53.00
2017-08-26T17:04:17.135Z,53.60
2017-08-26T17:06:44.801Z,52.60
2017-08-26T17:09:12.357Z,53.00
2017-08-26T17:11:39.988Z,53.70
2017-08-26T17:14:07.621Z,53.60
2017-08-26T17:16:35.249Z,53.30
2017-08-26T17:19:02.789Z,53.90
2017-08-26T17:21:30.403Z,54.00
2017-08-26T17:23:58.031Z,53.70
2017-08-26T17:26:25.604Z,53.70
2017-08-26T17:28:53.199Z,54.50
2017-08-26T17:31:20.812Z,55.20
2017-08-26T17:33:48.372Z,54.70
2017-08-26T17:36:16.013Z,55.20
2017-08-26T17:38:43.591Z,55.50
2017-08-26T17:41:11.269Z,55.60
2017-08-26T17:43:38.838Z,55.40
2017-08-26T17:46:06.400Z,55.80
2017-08-26T17:48:34.045Z,55.90
2017-08-26T17:51:01.661Z,56.10
2017-08-26T17:53:29.354Z,56.10
2017-08-26T17:55:56.905Z,56.60
2017-08-26T17:58:24.444Z,56.50
2017-08-26T18:00:52.063Z,56.90
2017-08-26T18:03:19.624Z,56.80
2017-08-26T18:05:47.260Z,57.10
2017-08-26T18:08:14.882Z,57.20
2017-08-26T18:10:42.472Z,57.50
2017-08-26T18:13:10.191Z,57.40
2017-08-26T18:15:37.757Z,57.20
2017-08-26T18:18:05.403Z,57.40
2017-08-26T18:20:33.011Z,57.10
2017-08-26T18:23:01.464Z,57.50
2017-08-26T18:25:29.109Z,57.50
2017-08-26T18:27:56.688Z,57.90
2017-08-26T18:30:24.277Z,58.30
2017-08-26T18:32:51.877Z,58.10
2017-08-26T18:35:19.403Z,58.20
2017-08-26T18:37:46.999Z,59.10
2017-08-26T18:40:14.622Z,59.30
2017-08-26T18:42:42.204Z,59.20
2017-08-26T18:45:09.792Z,58.10
2017-08-26T18:47:37.330Z,58.00
2017-08-26T18:50:04.966Z,58.00
2017-08-26T18:52:32.554Z,57.70
2017-08-26T18:55:00.220Z,58.10
2017-08-26T18:57:27.807Z,58.30
2017-08-26T18:59:55.437Z,58.30
2017-08-26T19:02:24.094Z,58.20
2017-08-26T19:04:51.660Z,58.70
2017-08-26T19:07:19.333Z,59.40
2017-08-26T19:09:46.910Z,58.60
2017-08-26T19:12:14.500Z,58.40
2017-08-26T19:14:42.158Z,59.00
2017-08-26T19:17:09.776Z,59.30
2017-08-26T19:19:37.356Z,58.90
2017-08-26T19:22:04.936Z,58.70
2017-08-26T19:24:32.506Z,58.30
2017-08-26T19:27:00.079Z,58.60
2017-08-26T19:29:27.620Z,58.20
2017-08-26T19:31:55.272Z,58.20
2017-08-26T19:34:22.865Z,58.60
2017-08-26T19:36:50.416Z,59.20
2017-08-26T19:39:18.048Z,58.60
2017-08-26T19:41:45.583Z,58.60
2017-08-26T19:44:13.198Z,59.00
2017-08-26T19:46:40.749Z,59.00
2017-08-26T19:49:08.313Z,59.10
2017-08-26T19:51:35.897Z,59.60
2017-08-26T19:54:03.439Z,59.00
2017-08-26T19:56:31.088Z,59.40
2017-08-26T19:58:58.696Z,59.10
2017-08-26T20:01:26.307Z,59.90
2017-08-26T20:03:53.945Z,59.90
2017-08-26T20:06:21.487Z,59.40
2017-08-26T20:08:49.171Z,59.70
2017-08-26T20:11:16.809Z,59.70
2017-08-26T20:13:44.401Z,59.80
2017-08-26T20:16:12.792Z,60.30
2017-08-26T20:18:40.361Z,60.30
2017-08-26T20:21:08.025Z,59.90
2017-08-26T20:23:35.618Z,60.00
2017-08-26T20:26:03.253Z,60.90
2017-08-26T20:28:30.825Z,60.10
2017-08-26T20:30:58.476Z,60.50
2017-08-26T20:33:26.020Z,60.30
2017-08-26T20:35:53.670Z,60.50
2017-08-26T20:38:21.277Z,61.00
2017-08-26T20:40:48.877Z,62.50
2017-08-26T20:43:16.568Z,61.80
2017-08-26T20:45:44.201Z,61.80
2017-08-26T20:48:11.861Z,62.20
2017-08-26T20:50:39.485Z,62.40
2017-08-26T20:53:07.146Z,61.30
2017-08-26T20:55:34.757Z,61.80
2017-08-26T20:58:02.347Z,62.80
2017-08-26T21:00:29.974Z,62.60
2017-08-26T21:02:57.512Z,63.20
2017-08-26T21:05:25.187Z,63.10
2017-08-26T21:07:52.735Z,63.50
2017-08-26T21:10:20.329Z,63.40
2017-08-26T21:12:48.730Z,63.40
2017-08-26T21:15:16.281Z,63.20
2017-08-26T21:17:44.476Z,64.00
2017-08-26T21:20:12.035Z,64.10
2017-08-26T21:22:39.659Z,64.00
2017-08-26T21:25:07.275Z,65.20
2017-08-26T21:27:34.981Z,64.30
2017-08-26T21:30:02.637Z,64.40
2017-08-26T21:32:30.253Z,65.00
2017-08-26T21:34:57.875Z,65.10
2017-08-26T21:37:25.480Z,65.00
2017-08-26T21:39:53.057Z,64.40
2017-08-26T21:42:20.699Z,64.40
2017-08-26T21:44:48.289Z,64.40
2017-08-26T21:47:15.857Z,64.00
2017-08-26T21:49:43.487Z,63.40
2017-08-26T21:52:11.138Z,64.00
2017-08-26T21:54:38.745Z,64.50
2017-08-26T21:57:06.420Z,65.50
2017-08-26T21:59:34.022Z,65.50
2017-08-26T22:02:01.599Z,65.60
2017-08-26T22:04:29.216Z,65.10
2017-08-26T22:06:56.822Z,64.70
2017-08-26T22:09:24.437Z,65.00
2017-08-26T22:11:52.024Z,66.40
2017-08-26T22:14:19.648Z,66.30
2017-08-26T22:16:47.232Z,66.00
2017-08-26T22:19:14.842Z,66.00
2017-08-26T22:21:42.511Z,65.10
2017-08-26T22:24:10.123Z,65.10
2017-08-26T22:26:38.449Z,65.50
2017-08-26T22:29:05.998Z,66.50
2017-08-26T22:31:33.650Z,66.60
2017-08-26T22:34:01.255Z,65.40
2017-08-26T22:36:28.821Z,66.40
2017-08-26T22:38:56.434Z,64.70
2017-08-26T22:41:25.946Z,66.60
2017-08-26T22:43:53.529Z,65.80
2017-08-26T22:46:21.116Z,67.30
2017-08-26T22:48:48.772Z,67.50
2017-08-26T22:51:16.361Z,67.00
2017-08-26T22:53:43.976Z,66.50
2017-08-26T22:56:11.563Z,64.90
2017-08-26T22:58:39.214Z,64.70
2017-08-26T23:01:06.901Z,66.20
2017-08-26T23:03:34.441Z,68.40
2017-08-26T23:06:02.089Z,68.90
2017-08-26T23:08:29.693Z,69.70
2017-08-26T23:10:57.411Z,68.20
2017-08-26T23:13:25.034Z,68.60
2017-08-26T23:15:52.631Z,70.00
2017-08-26T23:18:20.264Z,69.60
2017-08-26T23:20:47.803Z,70.60
2017-08-26T23:23:15.424Z,70.00
2017-08-26T23:25:43.079Z,68.90
2017-08-26T23:28:10.694Z,68.20
2017-08-26T23:30:38.401Z,68.40
2017-08-26T23:33:06.007Z,69.50
2017-08-26T23:35:33.676Z,70.50
2017-08-26T23:38:01.220Z,71.10
2017-08-26T23:40:28.819Z,71.90
2017-08-26T23:42:57.163Z,71.30
2017-08-26T23:45:24.776Z,71.20
2017-08-26T23:47:52.417Z,71.10
2017-08-26T23:50:19.988Z,71.90
2017-08-26T23:52:48.194Z,72.10
2017-08-26T23:55:15.774Z,71.90
2017-08-26T23:57:43.393Z,72.40
